Time,TemperatureF,DewpointF,PressureIn,WindDirection,WindDirectionDegrees,WindSpeedMPH,WindSpeedGustMPH,Humidity,HourlyPrecipIn,Conditions,Clouds,dailyrainin,SoftwareType,DateUTC
2013-01-15 05:25:00,14.7,13.0,30.48,SW,219,0.0,1.0,93,0.00,,,0.00,Wunderground v.1.15,2013-01-15 11:25:00,
2013-01-15 05:26:00,14.7,13.0,30.47,SW,219,0.0,1.0,93,0.00,,,0.00,Wunderground v.1.15,2013-01-15 11:26:00,
2013-01-15 05:28:00,14.7,13.0,30.48,SW,219,0.0,1.0,93,0.00,,,0.00,Wunderground v.1.15,2013-01-15 11:28:00,
2013-01-15 05:34:00,14.7,13.0,30.48,SW,219,0.0,1.0,93,0.00,,,0.00,Wunderground v.1.15,2013-01-15 11:34:00,
2013-01-15 05:40:00,14.5,12.6,30.49,SW,219,1.0,2.0,92,0.00,,,0.00,Wunderground v.1.15,2013-01-15 11:40:00,
2013-01-15 05:46:00,14.4,12.7,30.49,SW,219,1.0,1.0,93,0.00,,,0.00,Wunderground v.1.15,2013-01-15 11:46:00,
2013-01-15 05:52:00,14.4,12.7,30.49,SW,219,0.0,1.0,93,0.00,,,0.00,Wunderground v.1.15,2013-01-15 11:52:00,
2013-01-15 05:57:00,14.3,12.4,30.49,SW,219,0.0,1.0,92,0.00,,,0.00,Wunderground v.1.15,2013-01-15 11:57:00,
2013-01-15 06:03:00,14.2,12.3,30.49,SW,219,0.0,0.0,92,0.00,,,0.00,Wunderground v.1.15,2013-01-15 12:03:00,
2013-01-15 06:08:00,14.1,12.4,30.49,SW,219,0.0,0.0,93,0.00,,,0.00,Wunderground v.1.15,2013-01-15 12:08:00,
2013-01-15 06:14:00,14.1,12.4,30.48,SW,219,0.0,0.0,93,0.00,,,0.00,Wunderground v.1.15,2013-01-15 12:14:00,
2013-01-15 06:20:00,14.0,12.3,30.49,SW,219,0.0,0.0,93,0.00,,,0.00,Wunderground v.1.15,2013-01-15 12:20:00,
2013-01-15 06:26:00,14.0,12.3,30.48,SW,219,0.0,0.0,93,0.00,,,0.00,Wunderground v.1.15,2013-01-15 12:26:00,
2013-01-15 06:32:00,14.1,12.4,30.49,SW,219,0.0,0.0,93,0.00,,,0.00,Wunderground v.1.15,2013-01-15 12:32:00,
2013-01-15 06:37:00,14.1,12.4,30.48,SW,219,0.0,0.0,93,0.00,,,0.00,Wunderground v.1.15,2013-01-15 12:37:00,
2013-01-15 06:43:00,14.1,12.4,30.48,SW,219,0.0,0.0,93,0.00,,,0.00,Wunderground v.1.15,2013-01-15 12:43:00,
2013-01-15 06:49:00,14.0,12.1,30.48,SW,219,0.0,0.0,92,0.00,,,0.00,Wunderground v.1.15,2013-01-15 12:49:00,
2013-01-15 06:55:00,14.0,12.1,30.48,SW,219,0.0,2.0,92,0.00,,,0.00,Wunderground v.1.15,2013-01-15 12:55:00,
2013-01-15 07:00:00,13.9,12.0,30.48,SW,219,0.0,0.0,92,0.00,,,0.00,Wunderground v.1.15,2013-01-15 13:00:00,
2013-01-15 07:06:00,13.9,12.0,30.48,SW,219,0.0,0.0,92,0.00,,,0.00,Wunderground v.1.15,2013-01-15 13:06:00,
2013-01-15 07:12:00,13.9,12.3,30.49,SW,219,0.0,0.0,93,0.00,,,0.00,Wunderground v.1.15,2013-01-15 13:12:00,
2013-01-15 07:18:00,14.0,12.3,30.49,SW,219,0.0,1.0,93,0.00,,,0.00,Wunderground v.1.15,2013-01-15 13:18:00,
2013-01-15 07:23:00,13.9,12.0,30.49,SW,219,0.0,1.0,92,0.00,,,0.00,Wunderground v.1.15,2013-01-15 13:23:00,
2013-01-15 07:29:00,13.8,11.9,30.49,SW,219,0.0,1.0,92,0.00,,,0.00,Wunderground v.1.15,2013-01-15 13:29:00,
2013-01-15 07:35:00,13.8,11.9,30.48,SW,219,0.0,0.0,92,0.00,,,0.00,Wunderground v.1.15,2013-01-15 13:35:00,
2013-01-15 07:41:00,13.7,11.8,30.47,SW,219,0.0,0.0,92,0.00,,,0.00,Wunderground v.1.15,2013-01-15 13:41:00,
2013-01-15 07:47:00,13.8,11.9,30.47,SW,219,0.0,0.0,92,0.00,,,0.00,Wunderground v.1.15,2013-01-15 13:47:00,
2013-01-15 07:53:00,13.9,12.0,30.48,SW,219,0.0,0.0,92,0.00,,,0.00,Wunderground v.1.15,2013-01-15 13:53:00,
2013-01-15 07:59:00,14.0,12.3,30.48,SW,219,0.0,0.0,93,0.00,,,0.00,Wunderground v.1.15,2013-01-15 13:59:00,
2013-01-15 08:04:00,14.2,12.5,30.49,SW,219,0.0,0.0,93,0.00,,,0.00,Wunderground v.1.15,2013-01-15 14:04:00,
2013-01-15 08:10:00,14.6,12.9,30.49,SW,219,0.0,0.0,93,0.00,,,0.00,Wunderground v.1.15,2013-01-15 14:10:00,
2013-01-15 08:16:00,15.0,13.3,30.50,SW,219,0.0,0.0,93,0.00,,,0.00,Wunderground v.1.15,2013-01-15 14:16:00,
2013-01-15 08:21:00,15.2,13.5,30.50,SW,219,0.0,0.0,93,0.00,,,0.00,Wunderground v.1.15,2013-01-15 14:21:00,
2013-01-15 08:27:00,15.6,14.2,30.50,SW,219,0.0,1.0,94,0.00,,,0.00,Wunderground v.1.15,2013-01-15 14:27:00,
2013-01-15 08:32:00,16.0,14.6,30.50,SW,219,0.0,1.0,94,0.00,,,0.00,Wunderground v.1.15,2013-01-15 14:32:00,
2013-01-15 08:38:00,16.6,15.2,30.50,SW,219,0.0,1.0,94,0.00,,,0.00,Wunderground v.1.15,2013-01-15 14:38:00,
2013-01-15 08:44:00,17.1,15.7,30.50,SW,219,0.0,1.0,94,0.00,,,0.00,Wunderground v.1.15,2013-01-15 14:44:00,
2013-01-15 08:50:00,17.6,16.2,30.50,SW,219,0.0,0.0,94,0.00,,,0.00,Wunderground v.1.15,2013-01-15 14:50:00,
2013-01-15 08:56:00,18.0,16.6,30.50,SW,219,0.0,0.0,94,0.00,,,0.00,Wunderground v.1.15,2013-01-15 14:56:00,
2013-01-15 09:01:00,18.4,17.0,30.50,SW,219,0.0,1.0,94,0.00,,,0.00,Wunderground v.1.15,2013-01-15 15:01:00,
2013-01-15 09:07:00,18.8,17.4,30.50,SW,219,0.0,1.0,94,0.00,,,0.00,Wunderground v.1.15,2013-01-15 15:07:00,
2013-01-15 09:13:00,19.2,17.5,30.51,SW,219,0.0,0.0,93,0.00,,,0.00,Wunderground v.1.15,2013-01-15 15:13:00,
2013-01-15 09:19:00,19.6,17.9,30.51,SW,219,0.0,1.0,93,0.00,,,0.00,Wunderground v.1.15,2013-01-15 15:19:00,
2013-01-15 09:24:00,20.0,18.1,30.51,West,259,0.0,1.0,92,0.00,,,0.00,Wunderground v.1.15,2013-01-15 15:24:00,
2013-01-15 09:30:00,20.6,18.6,30.50,WNW,282,1.0,2.0,92,0.00,,,0.00,Wunderground v.1.15,2013-01-15 15:30:00,
2013-01-15 09:36:00,21.0,18.8,30.50,WNW,290,1.0,2.0,91,0.00,,,0.00,Wunderground v.1.15,2013-01-15 15:36:00,
2013-01-15 09:42:00,21.4,18.9,30.50,NW,321,1.0,1.0,90,0.00,,,0.00,Wunderground v.1.15,2013-01-15 15:42:00,
2013-01-15 09:48:00,21.7,19.0,30.50,NW,321,1.0,2.0,89,0.00,,,0.00,Wunderground v.1.15,2013-01-15 15:48:00,
2013-01-15 09:54:00,22.1,19.1,30.50,NW,326,1.0,2.0,88,0.00,,,0.00,Wunderground v.1.15,2013-01-15 15:54:00,
2013-01-15 09:59:00,22.6,18.8,30.49,NNW,342,1.0,2.0,85,0.00,,,0.00,Wunderground v.1.15,2013-01-15 15:59:00,
2013-01-15 10:04:00,23.0,18.9,30.49,NNW,344,1.0,2.0,84,0.00,,,0.00,Wunderground v.1.15,2013-01-15 16:04:00,
2013-01-15 10:10:00,23.6,19.5,30.48,NNW,347,1.0,1.0,84,0.00,,,0.00,Wunderground v.1.15,2013-01-15 16:10:00,
2013-01-15 10:16:00,24.1,19.7,30.48,ENE,67,1.0,3.0,83,0.00,,,0.00,Wunderground v.1.15,2013-01-15 16:16:00,
2013-01-15 10:22:00,24.7,19.7,30.47,NE,38,1.0,2.0,81,0.00,,,0.00,Wunderground v.1.15,2013-01-15 16:22:00,
2013-01-15 10:28:00,25.2,19.9,30.46,ENE,60,1.0,3.0,80,0.00,,,0.00,Wunderground v.1.15,2013-01-15 16:28:00,
2013-01-15 10:34:00,25.4,19.5,30.45,ENE,72,1.0,3.0,78,0.00,,,0.00,Wunderground v.1.15,2013-01-15 16:34:00,
2013-01-15 10:40:00,25.4,19.8,30.46,ENE,71,1.0,1.0,79,0.00,,,0.00,Wunderground v.1.15,2013-01-15 16:40:00,
2013-01-15 10:46:00,25.6,19.4,30.46,ENE,71,1.0,2.0,77,0.00,,,0.00,Wunderground v.1.15,2013-01-15 16:46:00,
2013-01-15 10:51:00,25.7,19.8,30.46,NE,56,1.0,3.0,78,0.00,,,0.00,Wunderground v.1.15,2013-01-15 16:51:00,
2013-01-15 10:57:00,25.8,19.9,30.45,ENE,69,1.0,3.0,78,0.00,,,0.00,Wunderground v.1.15,2013-01-15 16:57:00,
2013-01-15 11:03:00,25.9,20.3,30.45,NNE,22,1.0,1.0,79,0.00,,,0.00,Wunderground v.1.15,2013-01-15 17:03:00,
2013-01-15 11:09:00,26.3,21.0,30.45,NNE,22,1.0,2.0,80,0.00,,,0.00,Wunderground v.1.15,2013-01-15 17:09:00,
2013-01-15 11:15:00,26.3,20.4,30.44,ENE,61,1.0,3.0,78,0.00,,,0.00,Wunderground v.1.15,2013-01-15 17:15:00,
2013-01-15 11:21:00,26.5,20.9,30.44,ENE,61,1.0,1.0,79,0.00,,,0.00,Wunderground v.1.15,2013-01-15 17:21:00,
2013-01-15 11:27:00,26.9,21.0,30.44,NE,56,1.0,3.0,78,0.00,,,0.00,Wunderground v.1.15,2013-01-15 17:27:00,
2013-01-15 11:33:00,27.0,21.1,30.44,NNE,28,2.0,3.0,78,0.00,,,0.00,Wunderground v.1.15,2013-01-15 17:33:00,
2013-01-15 11:39:00,27.5,21.5,30.43,East,82,2.0,3.0,78,0.00,,,0.00,Wunderground v.1.15,2013-01-15 17:39:00,
2013-01-15 11:45:00,27.5,21.2,30.42,ENE,78,2.0,4.0,77,0.00,,,0.00,Wunderground v.1.15,2013-01-15 17:45:00,
2013-01-15 11:51:00,27.4,21.4,30.42,East,80,3.0,3.0,78,0.00,,,0.00,Wunderground v.1.15,2013-01-15 17:51:00,
2013-01-15 11:57:00,27.6,22.2,30.41,NNE,26,2.0,3.0,80,0.00,,,0.00,Wunderground v.1.15,2013-01-15 17:57:00,
2013-01-15 12:02:00,27.9,22.5,30.40,NNE,32,2.0,2.0,80,0.00,,,0.00,Wunderground v.1.15,2013-01-15 18:02:00,
2013-01-15 12:07:00,28.1,22.7,30.40,NNE,32,1.0,2.0,80,0.00,,,0.00,Wunderground v.1.15,2013-01-15 18:07:00,
2013-01-15 12:13:00,28.1,22.7,30.40,NE,51,1.0,3.0,80,0.00,,,0.00,Wunderground v.1.15,2013-01-15 18:13:00,
2013-01-15 12:18:00,28.1,22.4,30.40,ENE,78,1.0,3.0,79,0.00,,,0.00,Wunderground v.1.15,2013-01-15 18:18:00,
2013-01-15 12:24:00,27.9,22.5,30.40,ENE,64,2.0,3.0,80,0.00,,,0.00,Wunderground v.1.15,2013-01-15 18:24:00,
2013-01-15 12:30:00,28.0,22.6,30.40,NE,53,2.0,2.0,80,0.00,,,0.00,Wunderground v.1.15,2013-01-15 18:30:00,
2013-01-15 12:36:00,28.1,23.0,30.40,NE,53,1.0,2.0,81,0.00,,,0.00,Wunderground v.1.15,2013-01-15 18:36:00,
2013-01-15 12:42:00,28.3,22.9,30.40,North,355,1.0,2.0,80,0.00,,,0.00,Wunderground v.1.15,2013-01-15 18:42:00,
2013-01-15 12:48:00,28.3,22.9,30.39,East,83,2.0,3.0,80,0.00,,,0.00,Wunderground v.1.15,2013-01-15 18:48:00,
2013-01-15 12:54:00,28.3,22.9,30.39,ENE,75,2.0,8.0,80,0.00,,,0.00,Wunderground v.1.15,2013-01-15 18:54:00,
2013-01-15 13:00:00,28.4,23.0,30.39,ENE,59,2.0,2.0,80,0.00,,,0.00,Wunderground v.1.15,2013-01-15 19:00:00,
2013-01-15 13:06:00,28.6,23.2,30.38,NE,46,1.0,2.0,80,0.00,,,0.00,Wunderground v.1.15,2013-01-15 19:06:00,
2013-01-15 13:12:00,28.7,23.3,30.38,ENE,76,1.0,2.0,80,0.00,,,0.00,Wunderground v.1.15,2013-01-15 19:12:00,
2013-01-15 13:18:00,28.9,23.5,30.37,ENE,76,1.0,2.0,80,0.00,,,0.00,Wunderground v.1.15,2013-01-15 19:18:00,
2013-01-15 13:23:00,29.1,24.0,30.37,ENE,65,1.0,1.0,81,0.00,,,0.00,Wunderground v.1.15,2013-01-15 19:23:00,
2013-01-15 13:29:00,29.2,23.8,30.37,ENE,63,1.0,2.0,80,0.00,,,0.00,Wunderground v.1.15,2013-01-15 19:29:00,
2013-01-15 13:35:00,29.4,24.3,30.37,North,355,1.0,2.0,81,0.00,,,0.00,Wunderground v.1.15,2013-01-15 19:35:00,
2013-01-15 13:41:00,29.7,24.3,30.38,ENE,63,1.0,2.0,80,0.00,,,0.00,Wunderground v.1.15,2013-01-15 19:41:00,
2013-01-15 13:47:00,29.8,23.5,30.38,East,94,2.0,6.0,77,0.00,,,0.00,Wunderground v.1.15,2013-01-15 19:47:00,
2013-01-15 13:53:00,29.9,22.9,30.38,East,79,2.0,5.0,75,0.00,,,0.00,Wunderground v.1.15,2013-01-15 19:53:00,
2013-01-15 13:59:00,30.1,22.8,30.38,East,80,3.0,5.0,74,0.00,,,0.00,Wunderground v.1.15,2013-01-15 19:59:00,
2013-01-15 14:05:00,30.2,22.9,30.37,ENE,74,4.0,5.0,74,0.00,,,0.00,Wunderground v.1.15,2013-01-15 20:05:00,
2013-01-15 14:11:00,30.6,23.6,30.36,NE,44,3.0,3.0,75,0.00,,,0.00,Wunderground v.1.15,2013-01-15 20:11:00,
2013-01-15 14:17:00,30.8,23.8,30.37,ENE,68,2.0,3.0,75,0.00,,,0.00,Wunderground v.1.15,2013-01-15 20:17:00,
2013-01-15 14:23:00,30.7,23.4,30.37,ENE,73,2.0,2.0,74,0.00,,,0.00,Wunderground v.1.15,2013-01-15 20:23:00,
2013-01-15 14:29:00,30.9,23.6,30.36,NE,55,2.0,2.0,74,0.00,,,0.00,Wunderground v.1.15,2013-01-15 20:29:00,
2013-01-15 14:35:00,31.2,24.5,30.37,NE,51,1.0,2.0,76,0.00,,,0.00,Wunderground v.1.15,2013-01-15 20:35:00,
2013-01-15 14:41:00,31.2,23.9,30.36,ENE,69,1.0,2.0,74,0.00,,,0.00,Wunderground v.1.15,2013-01-15 20:41:00,
2013-01-15 14:46:00,31.2,24.2,30.37,ENE,71,2.0,3.0,75,0.00,,,0.00,Wunderground v.1.15,2013-01-15 20:46:00,
2013-01-15 14:52:00,30.8,23.5,30.36,East,81,1.0,6.0,74,0.00,,,0.00,Wunderground v.1.15,2013-01-15 20:52:00,
2013-01-15 14:57:00,30.6,23.3,30.36,East,81,2.0,6.0,74,0.00,,,0.00,Wunderground v.1.15,2013-01-15 20:57:00,
2013-01-15 15:02:00,30.4,22.4,30.36,East,89,2.0,3.0,72,0.00,,,0.00,Wunderground v.1.15,2013-01-15 21:02:00,
2013-01-15 15:08:00,30.4,22.8,30.38,East,89,2.0,3.0,73,0.00,,,0.00,Wunderground v.1.15,2013-01-15 21:08:00,
2013-01-15 15:14:00,30.6,23.0,30.38,East,89,1.0,2.0,73,0.00,,,0.00,Wunderground v.1.15,2013-01-15 21:14:00,
2013-01-15 15:19:00,30.6,23.0,30.38,ENE,78,1.0,3.0,73,0.00,,,0.00,Wunderground v.1.15,2013-01-15 21:19:00,
2013-01-15 15:25:00,30.7,23.1,30.38,ENE,71,2.0,2.0,73,0.00,,,0.00,Wunderground v.1.15,2013-01-15 21:25:00,
2013-01-15 15:30:00,30.7,23.4,30.38,East,79,2.0,2.0,74,0.00,,,0.00,Wunderground v.1.15,2013-01-15 21:30:00,
2013-01-15 15:35:00,30.8,23.2,30.38,East,79,2.0,8.0,73,0.00,,,0.00,Wunderground v.1.15,2013-01-15 21:35:00,
2013-01-15 15:41:00,30.7,23.4,30.38,ENE,76,2.0,2.0,74,0.00,,,0.00,Wunderground v.1.15,2013-01-15 21:41:00,
2013-01-15 15:47:00,30.8,23.5,30.38,ENE,74,2.0,3.0,74,0.00,,,0.00,Wunderground v.1.15,2013-01-15 21:47:00,
2013-01-15 15:52:00,30.8,23.5,30.38,ENE,71,2.0,5.0,74,0.00,,,0.00,Wunderground v.1.15,2013-01-15 21:52:00,
2013-01-15 15:58:00,30.8,23.8,30.37,ENE,74,2.0,5.0,75,0.00,,,0.00,Wunderground v.1.15,2013-01-15 21:58:00,
2013-01-15 16:03:00,30.7,23.7,30.37,ENE,71,2.0,4.0,75,0.00,,,0.00,Wunderground v.1.15,2013-01-15 22:03:00,
2013-01-15 16:08:00,30.6,23.9,30.37,ENE,75,2.0,4.0,76,0.00,,,0.00,Wunderground v.1.15,2013-01-15 22:08:00,
2013-01-15 16:14:00,30.5,23.8,30.36,ENE,75,1.0,2.0,76,0.00,,,0.00,Wunderground v.1.15,2013-01-15 22:14:00,
2013-01-15 16:20:00,30.2,23.5,30.36,East,82,2.0,2.0,76,0.00,,,0.00,Wunderground v.1.15,2013-01-15 22:20:00,
2013-01-15 16:26:00,30.0,23.4,30.36,East,80,2.0,2.0,76,0.00,,,0.00,Wunderground v.1.15,2013-01-15 22:26:00,
2013-01-15 16:31:00,29.9,23.3,30.36,East,80,1.0,1.0,76,0.00,,,0.00,Wunderground v.1.15,2013-01-15 22:31:00,
2013-01-15 16:36:00,29.8,23.5,30.36,East,80,1.0,2.0,77,0.00,,,0.00,Wunderground v.1.15,2013-01-15 22:36:00,
2013-01-15 16:42:00,29.6,23.3,30.36,ENE,77,1.0,1.0,77,0.00,,,0.00,Wunderground v.1.15,2013-01-15 22:42:00,
2013-01-15 16:47:00,29.4,23.4,30.35,ENE,77,1.0,1.0,78,0.00,,,0.00,Wunderground v.1.15,2013-01-15 22:47:00,
2013-01-15 16:53:00,29.2,23.5,30.35,ENE,77,0.0,4.0,79,0.00,,,0.00,Wunderground v.1.15,2013-01-15 22:53:00,
2013-01-15 16:58:00,29.0,23.3,30.35,ENE,77,0.0,4.0,79,0.00,,,0.00,Wunderground v.1.15,2013-01-15 22:58:00,
2013-01-15 17:04:00,28.8,23.4,30.35,ENE,77,0.0,1.0,80,0.00,,,0.00,Wunderground v.1.15,2013-01-15 23:04:00,
2013-01-15 17:10:00,28.6,23.5,30.34,ENE,77,1.0,1.0,81,0.00,,,0.00,Wunderground v.1.15,2013-01-15 23:10:00,
2013-01-15 17:15:00,28.4,23.3,30.34,ENE,77,0.0,1.0,81,0.00,,,0.00,Wunderground v.1.15,2013-01-15 23:15:00,
2013-01-15 17:21:00,28.3,23.5,30.34,ENE,77,0.0,0.0,82,0.00,,,0.00,Wunderground v.1.15,2013-01-15 23:21:00,
2013-01-15 17:27:00,28.0,23.2,30.34,ENE,77,0.0,0.0,82,0.00,,,0.00,Wunderground v.1.15,2013-01-15 23:27:00,
2013-01-15 17:33:00,27.8,23.3,30.34,ENE,77,0.0,0.0,83,0.00,,,0.00,Wunderground v.1.15,2013-01-15 23:33:00,
2013-01-15 17:39:00,27.7,23.2,30.33,ENE,77,0.0,0.0,83,0.00,,,0.00,Wunderground v.1.15,2013-01-15 23:39:00,
2013-01-15 17:45:00,27.5,23.3,30.32,ENE,77,0.0,0.0,84,0.00,,,0.00,Wunderground v.1.15,2013-01-15 23:45:00,
2013-01-15 17:51:00,27.4,23.2,30.32,ENE,77,0.0,2.0,84,0.00,,,0.00,Wunderground v.1.15,2013-01-15 23:51:00,
2013-01-15 17:57:00,27.2,23.3,30.32,ENE,77,0.0,2.0,85,0.00,,,0.00,Wunderground v.1.15,2013-01-15 23:57:00,
2013-01-15 18:03:00,27.1,23.5,30.32,ENE,77,0.0,0.0,86,0.00,,,0.00,Wunderground v.1.15,2013-01-16 00:03:00,
2013-01-15 18:09:00,27.0,23.6,30.32,ENE,77,0.0,0.0,87,0.00,,,0.00,Wunderground v.1.15,2013-01-16 00:09:00,
2013-01-15 18:15:00,26.8,23.4,30.32,ENE,77,0.0,0.0,87,0.00,,,0.00,Wunderground v.1.15,2013-01-16 00:15:00,
2013-01-15 18:21:00,26.6,23.3,30.32,ENE,77,0.0,0.0,87,0.00,,,0.00,Wunderground v.1.15,2013-01-16 00:21:00,
2013-01-15 18:27:00,26.6,23.5,30.31,ENE,77,0.0,0.0,88,0.00,,,0.00,Wunderground v.1.15,2013-01-16 00:27:00,
2013-01-15 18:32:00,26.5,23.4,30.31,ENE,77,0.0,0.0,88,0.00,,,0.00,Wunderground v.1.15,2013-01-16 00:32:00,
2013-01-15 18:38:00,26.3,23.2,30.30,ENE,77,0.0,0.0,88,0.00,,,0.00,Wunderground v.1.15,2013-01-16 00:38:00,
2013-01-15 18:43:00,26.2,23.1,30.30,ENE,77,0.0,0.0,88,0.00,,,0.00,Wunderground v.1.15,2013-01-16 00:43:00,
2013-01-15 18:49:00,26.1,23.3,30.29,ENE,77,0.0,0.0,89,0.00,,,0.00,Wunderground v.1.15,2013-01-16 00:49:00,
2013-01-15 18:55:00,25.8,23.0,30.29,ENE,77,0.0,0.0,89,0.00,,,0.00,Wunderground v.1.15,2013-01-16 00:55:00,
2013-01-15 19:00:00,25.6,22.8,30.29,ENE,77,0.0,0.0,89,0.00,,,0.00,Wunderground v.1.15,2013-01-16 01:00:00,
2013-01-15 19:06:00,25.3,22.8,30.29,ENE,77,0.0,0.0,90,0.00,,,0.00,Wunderground v.1.15,2013-01-16 01:06:00,
2013-01-15 19:12:00,25.1,22.6,30.29,ENE,77,0.0,0.0,90,0.00,,,0.00,Wunderground v.1.15,2013-01-16 01:12:00,
2013-01-15 19:18:00,24.8,22.3,30.29,ENE,77,0.0,0.0,90,0.00,,,0.00,Wunderground v.1.15,2013-01-16 01:18:00,
2013-01-15 19:24:00,24.7,22.4,30.29,ENE,70,1.0,2.0,91,0.00,,,0.00,Wunderground v.1.15,2013-01-16 01:24:00,
2013-01-15 19:30:00,24.6,22.3,30.28,NE,54,1.0,1.0,91,0.00,,,0.00,Wunderground v.1.15,2013-01-16 01:30:00,
2013-01-15 19:36:00,24.5,22.2,30.28,NE,54,1.0,1.0,91,0.00,,,0.00,Wunderground v.1.15,2013-01-16 01:36:00,
2013-01-15 19:42:00,24.2,21.7,30.28,NE,54,0.0,1.0,90,0.00,,,0.00,Wunderground v.1.15,2013-01-16 01:42:00,
2013-01-15 19:48:00,23.9,21.4,30.27,NE,54,0.0,1.0,90,0.00,,,0.00,Wunderground v.1.15,2013-01-16 01:48:00,
2013-01-15 19:54:00,23.7,21.5,30.27,NE,54,0.0,0.0,91,0.00,,,0.00,Wunderground v.1.15,2013-01-16 01:54:00,
2013-01-15 20:00:00,23.7,21.5,30.27,NE,54,0.0,0.0,91,0.00,,,0.00,Wunderground v.1.15,2013-01-16 02:00:00,
2013-01-15 20:06:00,23.7,21.5,30.27,NE,54,0.0,0.0,91,0.00,,,0.00,Wunderground v.1.15,2013-01-16 02:06:00,
2013-01-15 20:12:00,23.8,21.8,30.27,NE,54,0.0,0.0,92,0.00,,,0.00,Wunderground v.1.15,2013-01-16 02:12:00,
2013-01-15 20:18:00,23.8,21.8,30.27,NE,54,0.0,0.0,92,0.00,,,0.00,Wunderground v.1.15,2013-01-16 02:18:00,
2013-01-15 20:24:00,23.8,21.8,30.27,NE,54,0.0,0.0,92,0.00,,,0.00,Wunderground v.1.15,2013-01-16 02:24:00,
2013-01-15 20:30:00,23.8,21.8,30.26,NE,54,0.0,0.0,92,0.00,,,0.00,Wunderground v.1.15,2013-01-16 02:30:00,
2013-01-15 20:35:00,23.9,21.9,30.26,NE,54,0.0,0.0,92,0.00,,,0.00,Wunderground v.1.15,2013-01-16 02:35:00,
2013-01-15 20:41:00,23.8,21.8,30.26,NE,54,0.0,0.0,92,0.00,,,0.00,Wunderground v.1.15,2013-01-16 02:41:00,
2013-01-15 20:47:00,23.8,21.8,30.26,NE,54,0.0,0.0,92,0.00,,,0.00,Wunderground v.1.15,2013-01-16 02:47:00,
2013-01-15 20:53:00,23.6,21.4,30.27,NE,54,0.0,1.0,91,0.00,,,0.00,Wunderground v.1.15,2013-01-16 02:53:00,
2013-01-15 20:59:00,23.5,21.3,30.26,NE,54,0.0,1.0,91,0.00,,,0.00,Wunderground v.1.15,2013-01-16 02:59:00,
2013-01-15 21:04:00,23.4,21.4,30.26,NE,54,0.0,0.0,92,0.00,,,0.00,Wunderground v.1.15,2013-01-16 03:04:00,
2013-01-15 21:10:00,23.3,21.3,30.26,NE,54,0.0,0.0,92,0.00,,,0.00,Wunderground v.1.15,2013-01-16 03:10:00,
2013-01-15 21:16:00,23.3,21.3,30.26,NE,54,0.0,0.0,92,0.00,,,0.00,Wunderground v.1.15,2013-01-16 03:16:00,
2013-01-15 21:21:00,23.3,21.3,30.26,NE,54,0.0,0.0,92,0.00,,,0.00,Wunderground v.1.15,2013-01-16 03:21:00,
2013-01-15 21:27:00,23.3,21.3,30.25,NE,54,0.0,0.0,92,0.00,,,0.00,Wunderground v.1.15,2013-01-16 03:27:00,
2013-01-15 21:33:00,23.3,21.3,30.25,NE,54,0.0,0.0,92,0.00,,,0.00,Wunderground v.1.15,2013-01-16 03:33:00,
2013-01-15 21:39:00,23.1,20.9,30.24,NE,54,0.0,0.0,91,0.00,,,0.00,Wunderground v.1.15,2013-01-16 03:39:00,
2013-01-15 21:45:00,22.8,20.6,30.24,NE,54,0.0,0.0,91,0.00,,,0.00,Wunderground v.1.15,2013-01-16 03:45:00,
2013-01-15 21:51:00,22.7,20.7,30.24,NE,54,0.0,0.0,92,0.00,,,0.00,Wunderground v.1.15,2013-01-16 03:51:00,
2013-01-15 21:56:00,22.6,20.6,30.24,NE,54,0.0,0.0,92,0.00,,,0.00,Wunderground v.1.15,2013-01-16 03:56:00,
2013-01-15 22:02:00,22.5,20.8,30.24,NE,54,0.0,0.0,93,0.00,,,0.00,Wunderground v.1.15,2013-01-16 04:02:00,
2013-01-15 22:07:00,22.3,20.6,30.24,NE,54,0.0,0.0,93,0.00,,,0.00,Wunderground v.1.15,2013-01-16 04:07:00,
2013-01-15 22:13:00,22.2,20.5,30.23,NE,54,0.0,0.0,93,0.00,,,0.00,Wunderground v.1.15,2013-01-16 04:13:00,
2013-01-15 22:19:00,22.0,20.3,30.23,NE,54,0.0,0.0,93,0.00,,,0.00,Wunderground v.1.15,2013-01-16 04:19:00,
2013-01-15 22:25:00,21.9,20.2,30.23,NE,54,0.0,0.0,93,0.00,,,0.00,Wunderground v.1.15,2013-01-16 04:25:00,
2013-01-15 22:31:00,21.9,20.2,30.23,NE,54,0.0,0.0,93,0.00,,,0.00,Wunderground v.1.15,2013-01-16 04:31:00,
2013-01-15 22:37:00,22.0,20.3,30.23,NE,54,0.0,0.0,93,0.00,,,0.00,Wunderground v.1.15,2013-01-16 04:37:00,
2013-01-15 22:43:00,21.8,20.1,30.23,NE,54,0.0,0.0,93,0.00,,,0.00,Wunderground v.1.15,2013-01-16 04:43:00,
2013-01-15 22:49:00,21.6,19.9,30.22,NE,54,0.0,0.0,93,0.00,,,0.00,Wunderground v.1.15,2013-01-16 04:49:00,
2013-01-15 22:55:00,21.5,19.8,30.22,NE,54,0.0,0.0,93,0.00,,,0.00,Wunderground v.1.15,2013-01-16 04:55:00,
2013-01-15 23:00:00,21.4,19.7,30.22,NE,54,0.0,0.0,93,0.00,,,0.00,Wunderground v.1.15,2013-01-16 05:00:00,
2013-01-15 23:02:00,21.4,19.7,30.21,NE,54,0.0,0.0,93,0.00,,,0.00,Wunderground v.1.15,2013-01-16 05:02:00,
2013-01-15 23:07:00,21.5,20.0,30.21,NE,54,0.0,0.0,94,0.00,,,0.00,Wunderground v.1.15,2013-01-16 05:07:00,
2013-01-15 23:12:00,21.7,20.2,30.21,NE,54,0.0,0.0,94,0.00,,,0.00,Wunderground v.1.15,2013-01-16 05:12:00,
2013-01-15 23:18:00,21.5,19.8,30.22,NE,54,0.0,1.0,93,0.00,,,0.00,Wunderground v.1.15,2013-01-16 05:18:00,
2013-01-15 23:24:00,21.3,19.6,30.21,NE,54,0.0,0.0,93,0.00,,,0.00,Wunderground v.1.15,2013-01-16 05:24:00,
2013-01-15 23:30:00,21.1,19.4,30.21,NE,54,0.0,0.0,93,0.00,,,0.00,Wunderground v.1.15,2013-01-16 05:30:00,
2013-01-15 23:35:00,20.9,19.2,30.21,NE,54,0.0,0.0,93,0.00,,,0.00,Wunderground v.1.15,2013-01-16 05:35:00,